Huvudsida
METAR-TAF:

METAR-TAF

Flygplatser :

Bagdads internationella flygplats

Bagdad, Irak

latitud: 33-15-45N, longitud: 44-14-04E, höjd: 35 m

Aktuellt väderrapport

Denna rapport gjordes för 9 minuter sedan, klockan 13:00 UTC
Vind 9 kt från väst, varierande mellan väst/sydväst och väst/nordväst
Temperatur 23°C
Fuktighet 17%
Tryck 1012 hPa
Sikt 10 km eller mer
Brutna moln på en höjd av 3000 ft

METAR: ORBI 201300Z 27009KT 240V300 9999 BKN030 23/M03 Q1012 NOSIG

Tid: 16:09 (13:09 UTC)

Väderprognos

Denna rapport gjordes för 2 timmar och 9 minuter sedan, klockan 11:00 UTC
Prognos gäller från 20 kl. 12 UTC till 21 kl. 12 UTC
Vind 3 kt varierande vindriktning
Sikt: 8000 m
Spridda moln på en höjd av 3000 ft
Spridda moln på en höjd av 10000 ft
Blir
från 21 kl. 03 UTC till 21 kl. 06 UTC
Vind 12 kt från syd/sydväst
Sikt: 5000 m
Spridda moln på en höjd av 3000 ft
utbrett stoft

TAF: ORBI 201100Z 2012/2112 VRB03KT 8000 SCT030 SCT100 BECMG 2103/2106 20012KT 5000 DU SCT030

Aktuella väderrapporter och prognoser från 4000 flygplatser (METAR- och TAF-rapporter).

De tillgängliga stationerna syns som gula och röda prickar på kartan.

För musen över prickarna för att se namnen på stationerna.

Klicka sedan för att få väderrapporter och prognoser.

För att ändra kartan: Klicka på de gröna knapparna med ett svart kors på för att zooma in; den gröna knappen med ett streck på för att zooma ut; eller på de gröna pilarna för angränsande kartor.


METAR-TAF: